AAL956 KMIA-MWCR
Flight info
| Callsign | AAL956 |
|---|---|
| Flight time | 1h 5m |
| Altitude | 37000 |
| Route | MAYNR3 FUNDI UM335 ALVEK UM328 UCL UZ313 LACET UL465 GCM |
| Aircraft | A319/M-SDE3FGHIRWY/LB1 |
Departure
| Time | 2026-04-26 16:56 |
|---|---|
| Airport | Miami International Airport (KMIA) |
Arrival
| Time | 2026-04-26 18:02 |
|---|---|
| Airport | Owen Roberts International Airport (MWCR) |
| Time | Latitude | Longitude | Altitude | Speed | Heading |
|---|---|---|---|---|---|
| 2026-04-26 16:27 | 25.79783 | -80.27831 | 15 ft | 0 kts | 180° |
| 2026-04-26 16:42 | 25.79792 | -80.27831 | 15 ft | 3 kts | 180° |
| 2026-04-26 16:42 | 25.79813 | -80.27830 | 16 ft | 3 kts | 182° |
| 2026-04-26 16:42 | 25.79834 | -80.27829 | 17 ft | 3 kts | 185° |
| 2026-04-26 16:43 | 25.79855 | -80.27826 | 16 ft | 3 kts | 193° |
| 2026-04-26 16:43 | 25.79874 | -80.27820 | 16 ft | 3 kts | 215° |
| 2026-04-26 16:43 | 25.79885 | -80.27806 | 15 ft | 2 kts | 266° |
| 2026-04-26 16:43 | 25.79885 | -80.27805 | 15 ft | 0 kts | 267° |
| 2026-04-26 16:47 | 25.79885 | -80.27821 | 16 ft | 5 kts | 267° |
| 2026-04-26 16:47 | 25.79883 | -80.27871 | 17 ft | 7 kts | 267° |
| 2026-04-26 16:47 | 25.79880 | -80.27933 | 15 ft | 9 kts | 267° |
| 2026-04-26 16:48 | 25.79885 | -80.28006 | 15 ft | 10 kts | 294° |
| 2026-04-26 16:48 | 25.79897 | -80.28087 | 15 ft | 12 kts | 268° |
| 2026-04-26 16:48 | 25.79942 | -80.28150 | 15 ft | 12 kts | 357° |
| 2026-04-26 16:48 | 25.80027 | -80.28173 | 15 ft | 14 kts | 315° |
| 2026-04-26 16:49 | 25.80039 | -80.28252 | 15 ft | 0 kts | 266° |
| 2026-04-26 16:50 | 25.80038 | -80.28286 | 15 ft | 9 kts | 266° |
| 2026-04-26 16:50 | 25.80034 | -80.28356 | 15 ft | 8 kts | 266° |
| 2026-04-26 16:50 | 25.80031 | -80.28443 | 15 ft | 15 kts | 268° |
| 2026-04-26 16:50 | 25.80026 | -80.28561 | 15 ft | 16 kts | 266° |
| 2026-04-26 16:51 | 25.80020 | -80.28684 | 16 ft | 16 kts | 266° |
| 2026-04-26 16:51 | 25.80014 | -80.28812 | 16 ft | 17 kts | 268° |
| 2026-04-26 16:51 | 25.80009 | -80.28952 | 16 ft | 19 kts | 268° |
| 2026-04-26 16:51 | 25.80003 | -80.29100 | 16 ft | 20 kts | 267° |
| 2026-04-26 16:52 | 25.79997 | -80.29255 | 16 ft | 21 kts | 267° |
| 2026-04-26 16:52 | 25.79993 | -80.29356 | 15 ft | 20 kts | 267° |
| 2026-04-26 16:52 | 25.79984 | -80.29569 | 14 ft | 21 kts | 267° |
| 2026-04-26 16:52 | 25.79978 | -80.29734 | 15 ft | 22 kts | 267° |
| 2026-04-26 16:53 | 25.79971 | -80.29902 | 14 ft | 21 kts | 267° |
| 2026-04-26 16:53 | 25.79972 | -80.29956 | 13 ft | 0 kts | 278° |
| 2026-04-26 16:54 | 25.79973 | -80.29960 | 13 ft | 2 kts | 278° |
| 2026-04-26 16:54 | 25.79978 | -80.29999 | 13 ft | 7 kts | 278° |
| 2026-04-26 16:54 | 25.79985 | -80.30055 | 14 ft | 8 kts | 278° |
| 2026-04-26 16:55 | 25.80016 | -80.30106 | 14 ft | 10 kts | 335° |
| 2026-04-26 16:55 | 25.80074 | -80.30054 | 13 ft | 21 kts | 80° |
| 2026-04-26 16:55 | 25.80092 | -80.29619 | 14 ft | 92 kts | 87° |
| 2026-04-26 16:55 | 25.80130 | -80.28675 | 17 ft | 150 kts | 88° |
| 2026-04-26 16:56 | 25.80197 | -80.26199 | 1025 ft | 162 kts | 105° |
| 2026-04-26 16:56 | 25.79700 | -80.25105 | 1658 ft | 160 kts | 134° |
| 2026-04-26 16:56 | 25.78846 | -80.24230 | 2089 ft | 177 kts | 140° |
| 2026-04-26 16:57 | 25.77862 | -80.23267 | 2421 ft | 201 kts | 140° |
| 2026-04-26 16:57 | 25.76746 | -80.22180 | 2846 ft | 225 kts | 140° |
| 2026-04-26 16:57 | 25.74121 | -80.19732 | 4065 ft | 264 kts | 150° |
| 2026-04-26 16:58 | 25.72360 | -80.19173 | 4959 ft | 268 kts | 178° |
| 2026-04-26 16:58 | 25.71733 | -80.19151 | 5288 ft | 268 kts | 180° |
| 2026-04-26 16:58 | 25.66658 | -80.19148 | 7640 ft | 281 kts | 189° |
| 2026-04-26 16:59 | 25.64697 | -80.19415 | 8481 ft | 287 kts | 189° |
| 2026-04-26 16:59 | 25.60785 | -80.20534 | 10069 ft | 295 kts | 211° |
| 2026-04-26 17:00 | 25.56977 | -80.22953 | 10882 ft | 334 kts | 213° |
| 2026-04-26 17:00 | 25.52866 | -80.25562 | 12367 ft | 346 kts | 213° |
| 2026-04-26 17:00 | 25.50762 | -80.26886 | 13134 ft | 351 kts | 213° |
| 2026-04-26 17:01 | 25.48621 | -80.28228 | 13890 ft | 356 kts | 213° |
| 2026-04-26 17:01 | 25.46483 | -80.29571 | 14552 ft | 360 kts | 213° |
| 2026-04-26 17:01 | 25.44297 | -80.30949 | 15230 ft | 363 kts | 213° |
| 2026-04-26 17:01 | 25.42093 | -80.32341 | 15908 ft | 367 kts | 213° |
| 2026-04-26 17:02 | 25.40612 | -80.33276 | 16357 ft | 369 kts | 213° |
| 2026-04-26 17:02 | 25.38367 | -80.34694 | 17034 ft | 373 kts | 213° |
| 2026-04-26 17:02 | 25.36094 | -80.36127 | 17703 ft | 377 kts | 213° |
| 2026-04-26 17:02 | 25.33801 | -80.37568 | 18353 ft | 380 kts | 213° |
| 2026-04-26 17:03 | 25.30734 | -80.39495 | 19106 ft | 385 kts | 213° |
| 2026-04-26 17:03 | 25.29156 | -80.40487 | 19502 ft | 387 kts | 213° |
| 2026-04-26 17:03 | 25.26806 | -80.41963 | 20070 ft | 391 kts | 213° |
| 2026-04-26 17:03 | 25.24422 | -80.43442 | 20647 ft | 395 kts | 211° |
| 2026-04-26 17:04 | 25.21885 | -80.44584 | 21204 ft | 403 kts | 201° |
| 2026-04-26 17:04 | 25.19180 | -80.45467 | 21763 ft | 407 kts | 200° |
| 2026-04-26 17:04 | 25.16442 | -80.46360 | 22323 ft | 411 kts | 200° |
| 2026-04-26 17:04 | 25.13686 | -80.47260 | 22879 ft | 415 kts | 200° |
| 2026-04-26 17:05 | 25.10904 | -80.48167 | 23431 ft | 419 kts | 200° |
| 2026-04-26 17:05 | 25.08099 | -80.49082 | 23907 ft | 422 kts | 200° |
| 2026-04-26 17:05 | 25.05272 | -80.50004 | 24375 ft | 425 kts | 200° |
| 2026-04-26 17:05 | 25.02423 | -80.50937 | 24823 ft | 428 kts | 200° |
| 2026-04-26 17:06 | 24.99563 | -80.51877 | 25276 ft | 430 kts | 200° |
| 2026-04-26 17:06 | 24.96683 | -80.52819 | 25727 ft | 433 kts | 200° |
| 2026-04-26 17:06 | 24.93789 | -80.53762 | 26171 ft | 435 kts | 200° |
| 2026-04-26 17:06 | 24.90872 | -80.54713 | 26615 ft | 437 kts | 200° |
| 2026-04-26 17:07 | 24.87983 | -80.55653 | 27045 ft | 440 kts | 200° |
| 2026-04-26 17:07 | 24.85041 | -80.56613 | 27472 ft | 442 kts | 201° |
| 2026-04-26 17:07 | 24.82102 | -80.57641 | 27895 ft | 442 kts | 205° |
| 2026-04-26 17:07 | 24.79308 | -80.59037 | 28313 ft | 442 kts | 210° |
| 2026-04-26 17:08 | 24.76536 | -80.60522 | 28732 ft | 444 kts | 210° |
| 2026-04-26 17:08 | 24.73751 | -80.62015 | 29147 ft | 446 kts | 210° |
| 2026-04-26 17:08 | 24.70951 | -80.63516 | 29540 ft | 449 kts | 211° |
| 2026-04-26 17:08 | 24.68135 | -80.65024 | 29949 ft | 451 kts | 210° |
| 2026-04-26 17:09 | 24.65303 | -80.66538 | 30295 ft | 453 kts | 210° |
| 2026-04-26 17:09 | 24.63422 | -80.67540 | 30516 ft | 454 kts | 210° |
| 2026-04-26 17:09 | 24.59599 | -80.69572 | 30967 ft | 457 kts | 210° |
| 2026-04-26 17:09 | 24.56732 | -80.71100 | 31296 ft | 458 kts | 211° |
| 2026-04-26 17:10 | 24.53853 | -80.72635 | 31633 ft | 459 kts | 211° |
| 2026-04-26 17:10 | 24.51021 | -80.74142 | 32096 ft | 457 kts | 211° |
| 2026-04-26 17:10 | 24.48162 | -80.75661 | 32578 ft | 455 kts | 211° |
| 2026-04-26 17:10 | 24.45314 | -80.77174 | 33053 ft | 453 kts | 211° |
| 2026-04-26 17:11 | 24.42477 | -80.78681 | 33538 ft | 451 kts | 211° |
| 2026-04-26 17:11 | 24.39642 | -80.80190 | 34023 ft | 449 kts | 211° |
| 2026-04-26 17:11 | 24.36837 | -80.81687 | 34436 ft | 447 kts | 211° |
| 2026-04-26 17:11 | 24.34041 | -80.83173 | 34844 ft | 446 kts | 211° |
| 2026-04-26 17:12 | 24.28500 | -80.86106 | 35592 ft | 443 kts | 211° |
| 2026-04-26 17:12 | 24.25723 | -80.87577 | 35903 ft | 443 kts | 211° |
| 2026-04-26 17:13 | 24.17493 | -80.91939 | 35985 ft | 434 kts | 212° |
| 2026-04-26 17:14 | 24.09353 | -80.96258 | 35987 ft | 433 kts | 212° |
| 2026-04-26 17:14 | 24.01085 | -81.00286 | 35989 ft | 440 kts | 201° |
| 2026-04-26 17:15 | 23.94907 | -81.00982 | 35981 ft | 454 kts | 183° |
| 2026-04-26 17:15 | 23.91748 | -81.00831 | 35979 ft | 454 kts | 183° |
| 2026-04-26 17:16 | 23.85795 | -81.00577 | 35979 ft | 454 kts | 184° |
| 2026-04-26 17:16 | 23.79474 | -81.00330 | 35951 ft | 454 kts | 184° |
| 2026-04-26 17:17 | 23.73154 | -81.00066 | 35959 ft | 455 kts | 184° |
| 2026-04-26 17:17 | 23.66847 | -80.99799 | 35967 ft | 455 kts | 184° |
| 2026-04-26 17:18 | 23.60519 | -80.99528 | 35976 ft | 455 kts | 183° |
| 2026-04-26 17:18 | 23.54197 | -80.99260 | 35980 ft | 455 kts | 184° |
| 2026-04-26 17:19 | 23.44727 | -80.98866 | 35965 ft | 454 kts | 184° |
| 2026-04-26 17:19 | 23.38410 | -80.98596 | 35980 ft | 453 kts | 184° |
| 2026-04-26 17:20 | 23.33168 | -80.98371 | 35989 ft | 453 kts | 184° |
| 2026-04-26 17:20 | 23.25844 | -80.98066 | 35991 ft | 453 kts | 184° |
| 2026-04-26 17:21 | 23.19540 | -80.97802 | 35992 ft | 452 kts | 184° |
| 2026-04-26 17:21 | 23.13257 | -80.97539 | 35973 ft | 451 kts | 184° |
| 2026-04-26 17:22 | 23.06986 | -80.97275 | 35977 ft | 451 kts | 184° |
| 2026-04-26 17:22 | 23.00833 | -80.97743 | 35979 ft | 436 kts | 200° |
| 2026-04-26 17:23 | 22.95157 | -80.99818 | 35970 ft | 429 kts | 207° |
| 2026-04-26 17:23 | 22.89556 | -81.02063 | 35969 ft | 429 kts | 207° |
| 2026-04-26 17:24 | 22.83990 | -81.04284 | 35940 ft | 429 kts | 207° |
| 2026-04-26 17:24 | 22.78398 | -81.06519 | 35962 ft | 428 kts | 207° |
| 2026-04-26 17:25 | 22.72818 | -81.08758 | 35968 ft | 427 kts | 207° |
| 2026-04-26 17:25 | 22.67235 | -81.10993 | 35971 ft | 427 kts | 207° |
| 2026-04-26 17:26 | 22.61663 | -81.13218 | 35972 ft | 427 kts | 207° |
| 2026-04-26 17:26 | 22.56123 | -81.15426 | 35972 ft | 427 kts | 207° |
| 2026-04-26 17:27 | 22.50552 | -81.17636 | 35946 ft | 426 kts | 207° |
| 2026-04-26 17:27 | 22.44986 | -81.19850 | 35957 ft | 426 kts | 207° |
| 2026-04-26 17:28 | 22.39424 | -81.22064 | 35965 ft | 425 kts | 207° |
| 2026-04-26 17:28 | 22.33860 | -81.24278 | 35968 ft | 425 kts | 207° |
| 2026-04-26 17:29 | 22.29252 | -81.26113 | 35969 ft | 425 kts | 207° |
| 2026-04-26 17:29 | 22.22795 | -81.28676 | 35959 ft | 425 kts | 207° |
| 2026-04-26 17:30 | 22.17241 | -81.30877 | 35949 ft | 425 kts | 206° |
| 2026-04-26 17:30 | 22.11680 | -81.33079 | 35955 ft | 426 kts | 206° |
| 2026-04-26 17:31 | 22.06104 | -81.35285 | 35965 ft | 426 kts | 206° |
| 2026-04-26 17:31 | 22.00537 | -81.37491 | 35968 ft | 426 kts | 206° |
| 2026-04-26 17:32 | 21.94971 | -81.39685 | 35969 ft | 426 kts | 206° |
| 2026-04-26 17:32 | 21.89439 | -81.41870 | 35944 ft | 426 kts | 206° |
| 2026-04-26 17:33 | 21.83873 | -81.44070 | 35955 ft | 425 kts | 206° |
| 2026-04-26 17:34 | 21.75541 | -81.47352 | 35966 ft | 425 kts | 206° |
| 2026-04-26 17:34 | 21.69979 | -81.49542 | 35968 ft | 425 kts | 206° |
| 2026-04-26 17:35 | 21.64420 | -81.51730 | 35965 ft | 425 kts | 206° |
| 2026-04-26 17:35 | 21.58743 | -81.53615 | 35968 ft | 433 kts | 196° |
| 2026-04-26 17:36 | 21.52799 | -81.54732 | 35955 ft | 433 kts | 195° |
| 2026-04-26 17:36 | 21.46859 | -81.55850 | 35959 ft | 433 kts | 196° |
| 2026-04-26 17:37 | 21.40917 | -81.56973 | 35962 ft | 433 kts | 195° |
| 2026-04-26 17:37 | 21.34972 | -81.58091 | 35967 ft | 433 kts | 195° |
| 2026-04-26 17:38 | 21.26416 | -81.59701 | 35971 ft | 433 kts | 196° |
| 2026-04-26 17:38 | 21.20477 | -81.60829 | 35974 ft | 434 kts | 196° |
| 2026-04-26 17:39 | 21.14524 | -81.61955 | 35976 ft | 434 kts | 195° |
| 2026-04-26 17:39 | 21.08570 | -81.63071 | 35977 ft | 434 kts | 195° |
| 2026-04-26 17:40 | 21.04596 | -81.63818 | 35976 ft | 433 kts | 196° |
| 2026-04-26 17:40 | 20.96722 | -81.65305 | 35975 ft | 433 kts | 195° |
| 2026-04-26 17:41 | 20.90755 | -81.66423 | 35417 ft | 437 kts | 195° |
| 2026-04-26 17:41 | 20.87768 | -81.66984 | 34919 ft | 435 kts | 195° |
| 2026-04-26 17:41 | 20.84784 | -81.67539 | 34401 ft | 434 kts | 195° |
| 2026-04-26 17:42 | 20.81808 | -81.68093 | 33880 ft | 433 kts | 195° |
| 2026-04-26 17:42 | 20.78851 | -81.68645 | 33344 ft | 431 kts | 195° |
| 2026-04-26 17:42 | 20.75909 | -81.69193 | 32849 ft | 428 kts | 195° |
| 2026-04-26 17:42 | 20.72982 | -81.69739 | 32344 ft | 426 kts | 195° |
| 2026-04-26 17:43 | 20.70069 | -81.70287 | 31850 ft | 424 kts | 195° |
| 2026-04-26 17:43 | 20.67169 | -81.70836 | 31361 ft | 422 kts | 195° |
| 2026-04-26 17:43 | 20.64280 | -81.71379 | 30879 ft | 421 kts | 195° |
| 2026-04-26 17:43 | 20.61409 | -81.71916 | 30411 ft | 419 kts | 195° |
| 2026-04-26 17:44 | 20.58537 | -81.72451 | 29915 ft | 417 kts | 195° |
| 2026-04-26 17:44 | 20.55679 | -81.72984 | 29432 ft | 414 kts | 195° |
| 2026-04-26 17:44 | 20.52854 | -81.73510 | 28984 ft | 411 kts | 194° |
| 2026-04-26 17:44 | 20.50042 | -81.74034 | 28544 ft | 408 kts | 194° |
| 2026-04-26 17:45 | 20.47299 | -81.74542 | 28116 ft | 405 kts | 194° |
| 2026-04-26 17:45 | 20.44515 | -81.75060 | 27686 ft | 403 kts | 194° |
| 2026-04-26 17:45 | 20.41760 | -81.75576 | 27244 ft | 401 kts | 194° |
| 2026-04-26 17:45 | 20.39014 | -81.76089 | 26805 ft | 400 kts | 194° |
| 2026-04-26 17:46 | 20.36271 | -81.76602 | 26350 ft | 400 kts | 194° |
| 2026-04-26 17:46 | 20.33536 | -81.77111 | 25913 ft | 399 kts | 194° |
| 2026-04-26 17:46 | 20.30795 | -81.77622 | 25432 ft | 399 kts | 194° |
| 2026-04-26 17:46 | 20.28057 | -81.78136 | 24964 ft | 399 kts | 194° |
| 2026-04-26 17:47 | 20.25317 | -81.78650 | 24470 ft | 400 kts | 194° |
| 2026-04-26 17:47 | 20.24391 | -81.78822 | 24309 ft | 400 kts | 194° |
| 2026-04-26 17:47 | 20.20753 | -81.79501 | 23626 ft | 402 kts | 194° |
| 2026-04-26 17:47 | 20.17991 | -81.80012 | 23138 ft | 401 kts | 193° |
| 2026-04-26 17:48 | 20.15252 | -81.80518 | 22556 ft | 402 kts | 193° |
| 2026-04-26 17:48 | 20.12524 | -81.81024 | 22275 ft | 395 kts | 193° |
| 2026-04-26 17:48 | 20.09816 | -81.81527 | 21826 ft | 393 kts | 193° |
| 2026-04-26 17:48 | 20.07124 | -81.82025 | 21378 ft | 390 kts | 193° |
| 2026-04-26 17:49 | 20.04465 | -81.82514 | 20801 ft | 387 kts | 193° |
| 2026-04-26 17:49 | 20.01810 | -81.82928 | 20234 ft | 386 kts | 185° |
| 2026-04-26 17:49 | 19.99128 | -81.82741 | 19695 ft | 386 kts | 170° |
| 2026-04-26 17:49 | 19.96577 | -81.81872 | 19171 ft | 385 kts | 159° |
| 2026-04-26 17:50 | 19.94136 | -81.80817 | 18648 ft | 383 kts | 159° |
| 2026-04-26 17:50 | 19.91676 | -81.79758 | 18148 ft | 379 kts | 159° |
| 2026-04-26 17:50 | 19.89208 | -81.78699 | 17598 ft | 376 kts | 159° |
| 2026-04-26 17:50 | 19.86804 | -81.77670 | 17056 ft | 372 kts | 159° |
| 2026-04-26 17:51 | 19.84410 | -81.76646 | 16477 ft | 369 kts | 158° |
| 2026-04-26 17:51 | 19.82066 | -81.75647 | 15938 ft | 366 kts | 158° |
| 2026-04-26 17:51 | 19.79710 | -81.74644 | 15365 ft | 364 kts | 158° |
| 2026-04-26 17:51 | 19.77349 | -81.73637 | 14655 ft | 367 kts | 158° |
| 2026-04-26 17:52 | 19.74981 | -81.72625 | 13965 ft | 368 kts | 157° |
| 2026-04-26 17:52 | 19.72594 | -81.71602 | 13217 ft | 369 kts | 157° |
| 2026-04-26 17:52 | 19.70217 | -81.70585 | 12460 ft | 368 kts | 156° |
| 2026-04-26 17:52 | 19.67840 | -81.69565 | 11766 ft | 366 kts | 156° |
| 2026-04-26 17:53 | 19.65522 | -81.68573 | 11505 ft | 351 kts | 156° |
| 2026-04-26 17:53 | 19.63302 | -81.67625 | 11263 ft | 337 kts | 156° |
| 2026-04-26 17:53 | 19.61192 | -81.66724 | 11024 ft | 325 kts | 156° |
| 2026-04-26 17:54 | 19.57099 | -81.64981 | 10562 ft | 310 kts | 155° |
| 2026-04-26 17:54 | 19.55103 | -81.64131 | 10210 ft | 310 kts | 155° |
| 2026-04-26 17:54 | 19.53099 | -81.63274 | 9812 ft | 311 kts | 155° |
| 2026-04-26 17:54 | 19.51090 | -81.62416 | 9420 ft | 310 kts | 155° |
| 2026-04-26 17:55 | 19.49084 | -81.61560 | 8953 ft | 311 kts | 155° |
| 2026-04-26 17:55 | 19.47080 | -81.60703 | 8540 ft | 309 kts | 156° |
| 2026-04-26 17:55 | 19.45104 | -81.59860 | 8117 ft | 304 kts | 156° |
| 2026-04-26 17:55 | 19.43158 | -81.59031 | 7695 ft | 299 kts | 156° |
| 2026-04-26 17:56 | 19.41239 | -81.58215 | 7269 ft | 295 kts | 156° |
| 2026-04-26 17:56 | 19.37477 | -81.56617 | 6419 ft | 286 kts | 157° |
| 2026-04-26 17:57 | 19.33840 | -81.55200 | 5546 ft | 271 kts | 163° |
| 2026-04-26 17:57 | 19.32053 | -81.54693 | 5118 ft | 265 kts | 165° |
| 2026-04-26 17:57 | 19.30280 | -81.54231 | 4692 ft | 259 kts | 166° |
| 2026-04-26 17:57 | 19.28548 | -81.53791 | 4261 ft | 253 kts | 166° |
| 2026-04-26 17:58 | 19.25090 | -81.50692 | 3047 ft | 234 kts | 86° |
| 2026-04-26 17:59 | 19.25944 | -81.47490 | 2296 ft | 219 kts | 70° |
| 2026-04-26 17:59 | 19.26460 | -81.46016 | 1918 ft | 208 kts | 71° |
| 2026-04-26 17:59 | 19.26920 | -81.44605 | 1587 ft | 196 kts | 72° |
| 2026-04-26 17:59 | 19.27318 | -81.43275 | 1290 ft | 183 kts | 73° |
| 2026-04-26 18:00 | 19.27662 | -81.42043 | 1067 ft | 165 kts | 75° |
| 2026-04-26 18:00 | 19.27959 | -81.40923 | 855 ft | 149 kts | 75° |
| 2026-04-26 18:00 | 19.28217 | -81.39921 | 665 ft | 139 kts | 77° |
| 2026-04-26 18:00 | 19.28476 | -81.38920 | 513 ft | 143 kts | 75° |
| 2026-04-26 18:01 | 19.28773 | -81.37912 | 285 ft | 142 kts | 75° |
| 2026-04-26 18:01 | 19.29010 | -81.36923 | 66 ft | 135 kts | 79° |
| 2026-04-26 18:01 | 19.29219 | -81.36042 | 18 ft | 107 kts | 77° |
| 2026-04-26 18:01 | 19.29353 | -81.35451 | 18 ft | 58 kts | 76° |
| 2026-04-26 18:02 | 19.29428 | -81.35137 | 23 ft | 40 kts | 76° |
| 2026-04-26 18:02 | 19.29465 | -81.34983 | 22 ft | 26 kts | 76° |
| 2026-04-26 18:02 | 19.29510 | -81.34866 | 24 ft | 8 kts | 19° |
| 2026-04-26 18:02 | 19.29558 | -81.34912 | 22 ft | 14 kts | 294° |
| 2026-04-26 18:03 | 19.29545 | -81.35019 | 19 ft | 16 kts | 254° |
| 2026-04-26 18:03 | 19.29517 | -81.35141 | 19 ft | 18 kts | 257° |
| 2026-04-26 18:03 | 19.29485 | -81.35273 | 20 ft | 19 kts | 254° |
| 2026-04-26 18:03 | 19.29455 | -81.35413 | 18 ft | 20 kts | 259° |
| 2026-04-26 18:04 | 19.29431 | -81.35527 | 18 ft | 11 kts | 256° |
| 2026-04-26 18:04 | 19.29439 | -81.35572 | 18 ft | 6 kts | 317° |
| 2026-04-26 18:04 | 19.29475 | -81.35597 | 19 ft | 7 kts | 301° |
| 2026-04-26 18:05 | 19.29452 | -81.35713 | 20 ft | 8 kts | 253° |
| 2026-04-26 18:05 | 19.29467 | -81.35755 | 20 ft | 7 kts | 341° |
| 2026-04-26 18:05 | 19.29509 | -81.35766 | 19 ft | 2 kts | 345° |
| 2026-04-26 18:05 | 19.29517 | -81.35768 | 19 ft | 0 kts | 345° |